createdAt,value
2019-03-16T00:02:02.709Z,74.26
2019-03-16T00:04:31.139Z,73.99
2019-03-16T00:06:59.531Z,73.77
2019-03-16T00:09:28.015Z,73.63
2019-03-16T00:11:56.569Z,73.64
2019-03-16T00:14:24.989Z,73.61
2019-03-16T00:16:53.395Z,73.47
2019-03-16T00:19:21.918Z,73.43
2019-03-16T00:21:50.305Z,73.48
2019-03-16T00:24:18.754Z,73.25
2019-03-16T00:26:47.193Z,73.27
2019-03-16T00:29:15.593Z,73.90
2019-03-16T00:31:44.110Z,73.87
2019-03-16T00:34:12.549Z,74.20
2019-03-16T00:36:41.011Z,74.17
2019-03-16T00:39:09.417Z,73.88
2019-03-16T00:41:37.848Z,74.04
2019-03-16T00:44:06.247Z,73.49
2019-03-16T00:46:34.697Z,73.70
2019-03-16T00:49:03.133Z,73.60
2019-03-16T00:51:31.555Z,73.29
2019-03-16T00:53:59.959Z,73.42
2019-03-16T00:56:28.407Z,73.70
2019-03-16T00:58:56.799Z,73.52
2019-03-16T01:01:25.209Z,73.23
2019-03-16T01:03:53.683Z,73.35
2019-03-16T01:06:22.575Z,73.34
2019-03-16T01:08:51.120Z,73.25
2019-03-16T01:11:19.515Z,73.21
2019-03-16T01:13:48.301Z,73.50
2019-03-16T01:16:16.705Z,73.48
2019-03-16T01:18:45.139Z,73.28
2019-03-16T01:21:13.558Z,73.26
2019-03-16T01:23:41.973Z,73.00
2019-03-16T01:26:10.401Z,72.91
2019-03-16T01:28:38.810Z,72.43
2019-03-16T01:31:07.258Z,72.49
2019-03-16T01:33:35.657Z,72.12
2019-03-16T01:36:04.074Z,71.99
2019-03-16T01:38:32.497Z,72.44
2019-03-16T01:41:00.931Z,72.20
2019-03-16T01:43:29.340Z,71.92
2019-03-16T01:45:57.767Z,71.63
2019-03-16T01:48:26.208Z,71.79
2019-03-16T01:50:54.684Z,71.77
2019-03-16T01:53:23.113Z,71.68
2019-03-16T01:55:51.563Z,71.48
2019-03-16T01:58:19.968Z,71.64
2019-03-16T02:00:48.408Z,71.56
2019-03-16T02:03:16.832Z,71.17
2019-03-16T02:05:45.362Z,71.41
2019-03-16T02:08:13.795Z,71.31
2019-03-16T02:10:42.270Z,71.14
2019-03-16T02:13:10.727Z,71.15
2019-03-16T02:15:39.228Z,70.78
2019-03-16T02:18:07.662Z,70.70
2019-03-16T02:20:36.142Z,70.52
2019-03-16T02:23:04.573Z,70.58
2019-03-16T02:25:33.006Z,70.60
2019-03-16T02:28:01.428Z,70.82
2019-03-16T02:30:29.938Z,70.92
2019-03-16T02:33:11.488Z,70.70
2019-03-16T02:35:28.482Z,70.67
2019-03-16T02:37:56.876Z,70.37
2019-03-16T02:40:25.311Z,70.06
2019-03-16T02:42:53.707Z,70.09
2019-03-16T02:45:22.156Z,70.70
2019-03-16T02:47:50.557Z,70.65
2019-03-16T02:50:19.000Z,70.41
2019-03-16T02:52:49.820Z,70.39
2019-03-16T02:55:17.584Z,70.65
2019-03-16T02:57:46.009Z,70.42
2019-03-16T03:00:14.422Z,70.67
2019-03-16T03:02:42.833Z,70.79
2019-03-16T03:05:11.750Z,70.70
2019-03-16T03:07:40.153Z,70.86
2019-03-16T03:10:11.070Z,70.83
2019-03-16T03:12:39.462Z,70.86
2019-03-16T03:15:09.766Z,70.78
2019-03-16T03:17:38.212Z,71.54
2019-03-16T03:20:08.280Z,71.68
2019-03-16T03:22:36.703Z,71.65
2019-03-16T03:25:05.974Z,71.48
2019-03-16T03:27:34.359Z,71.79
2019-03-16T03:30:02.962Z,71.50
2019-03-16T03:32:31.413Z,71.33
2019-03-16T03:34:59.791Z,71.07
2019-03-16T03:37:28.222Z,70.80
2019-03-16T03:39:56.687Z,70.80
2019-03-16T03:42:25.085Z,71.25
2019-03-16T03:44:53.508Z,71.06
2019-03-16T03:47:21.948Z,70.93
2019-03-16T03:49:50.337Z,70.47
2019-03-16T03:52:18.742Z,70.27
2019-03-16T03:54:47.152Z,70.43
2019-03-16T03:57:15.585Z,70.18
2019-03-16T03:59:44.419Z,70.21
2019-03-16T04:02:12.921Z,70.24
2019-03-16T04:04:41.327Z,69.98
2019-03-16T04:07:09.916Z,69.66
2019-03-16T04:09:38.437Z,69.93
2019-03-16T04:12:06.910Z,70.00
2019-03-16T04:14:35.307Z,70.35
2019-03-16T04:17:03.881Z,70.59
2019-03-16T04:19:32.299Z,70.48
2019-03-16T04:22:00.800Z,70.75
2019-03-16T04:24:29.362Z,71.63
2019-03-16T04:26:57.764Z,71.93
2019-03-16T04:29:26.278Z,71.97
2019-03-16T04:31:54.666Z,71.39
2019-03-16T04:34:29.054Z,71.37
2019-03-16T04:36:53.259Z,71.39
2019-03-16T04:39:21.701Z,70.86
2019-03-16T04:41:50.101Z,70.59
2019-03-16T04:44:18.497Z,70.50
2019-03-16T04:46:46.946Z,70.84
2019-03-16T04:49:15.379Z,70.15
2019-03-16T04:51:43.802Z,70.04
2019-03-16T04:54:12.238Z,70.32
2019-03-16T04:56:40.642Z,70.07
2019-03-16T04:59:09.092Z,70.16
2019-03-16T05:01:37.493Z,69.71
2019-03-16T05:04:05.949Z,70.04
2019-03-16T05:06:34.361Z,70.28
2019-03-16T05:09:03.341Z,70.33
2019-03-16T05:11:31.776Z,70.39
2019-03-16T05:14:00.261Z,70.70
2019-03-16T05:16:28.689Z,70.81
2019-03-16T05:18:57.123Z,70.70
2019-03-16T05:21:25.522Z,71.00
2019-03-16T05:23:53.954Z,71.72
2019-03-16T05:26:22.406Z,72.25
2019-03-16T05:28:50.822Z,73.52
2019-03-16T05:31:19.218Z,73.42
2019-03-16T05:33:47.658Z,73.69
2019-03-16T05:36:16.067Z,74.10
2019-03-16T05:38:44.471Z,74.27
2019-03-16T05:41:13.159Z,74.72
2019-03-16T05:43:41.566Z,73.83
2019-03-16T05:46:10.088Z,73.73
2019-03-16T05:48:38.536Z,73.89
2019-03-16T05:51:07.037Z,73.79
2019-03-16T05:53:35.445Z,73.84
2019-03-16T05:56:03.883Z,74.22
2019-03-16T05:58:32.330Z,74.42
2019-03-16T06:01:00.862Z,74.42
2019-03-16T06:03:29.332Z,74.53
2019-03-16T06:05:57.770Z,74.49
2019-03-16T06:08:26.182Z,74.50
2019-03-16T06:10:54.612Z,74.89
2019-03-16T06:13:23.016Z,74.62
2019-03-16T06:15:51.422Z,74.57
2019-03-16T06:18:19.873Z,74.96
2019-03-16T06:20:48.371Z,74.69
2019-03-16T06:23:16.836Z,74.68
2019-03-16T06:25:45.350Z,74.48
2019-03-16T06:28:13.798Z,74.15
2019-03-16T06:30:42.207Z,73.88
2019-03-16T06:33:10.667Z,73.45
2019-03-16T06:35:39.091Z,73.66
2019-03-16T06:38:07.502Z,72.77
2019-03-16T06:40:35.931Z,73.29
2019-03-16T06:43:04.352Z,72.32
2019-03-16T06:45:32.861Z,72.56
2019-03-16T06:48:01.302Z,72.06
2019-03-16T06:50:29.743Z,71.89
2019-03-16T06:52:58.136Z,71.55
2019-03-16T06:55:26.599Z,71.71
2019-03-16T06:57:54.997Z,71.84
2019-03-16T07:00:24.156Z,71.07
2019-03-16T07:02:52.637Z,71.22
2019-03-16T07:05:23.635Z,71.35
2019-03-16T07:07:51.176Z,71.04
2019-03-16T07:10:19.634Z,71.19
2019-03-16T07:12:48.038Z,71.44
2019-03-16T07:15:16.818Z,71.00
2019-03-16T07:17:45.244Z,70.99
2019-03-16T07:20:17.413Z,70.75
2019-03-16T07:22:45.789Z,70.44
2019-03-16T07:25:14.338Z,70.31
2019-03-16T07:27:43.230Z,70.71
2019-03-16T07:30:15.054Z,70.61
2019-03-16T07:32:43.567Z,70.31
2019-03-16T07:35:12.025Z,70.25
2019-03-16T07:37:40.430Z,70.59
2019-03-16T07:40:11.892Z,70.03
2019-03-16T07:42:40.375Z,69.72
2019-03-16T07:45:10.250Z,69.48
2019-03-16T07:47:38.868Z,68.87
2019-03-16T07:50:10.221Z,68.73
2019-03-16T07:52:39.648Z,69.14
2019-03-16T07:55:08.791Z,69.77
2019-03-16T07:57:40.459Z,69.31
2019-03-16T08:00:12.318Z,68.94
2019-03-16T08:02:40.772Z,68.62
2019-03-16T08:05:18.360Z,68.82
2019-03-16T08:07:39.468Z,68.83
2019-03-16T08:10:10.143Z,68.95
2019-03-16T08:12:38.540Z,68.46
2019-03-16T08:15:11.181Z,68.62
2019-03-16T08:17:39.717Z,68.47
2019-03-16T08:20:09.768Z,68.95
2019-03-16T08:22:38.189Z,68.77
2019-03-16T08:25:07.763Z,68.70
2019-03-16T08:27:36.245Z,67.95
2019-03-16T08:30:07.776Z,67.66
2019-03-16T08:32:36.216Z,67.92
2019-03-16T08:35:05.582Z,67.54
2019-03-16T08:37:34.046Z,67.44
2019-03-16T08:40:02.534Z,66.80
2019-03-16T08:42:30.947Z,66.57
2019-03-16T08:44:59.405Z,66.51
2019-03-16T08:47:27.809Z,67.01
2019-03-16T08:49:56.366Z,67.29
2019-03-16T08:52:24.807Z,67.24
2019-03-16T08:54:53.380Z,67.66
2019-03-16T08:57:21.841Z,67.68
2019-03-16T08:59:50.291Z,68.33
2019-03-16T09:02:18.748Z,67.84
2019-03-16T09:04:47.153Z,67.83
2019-03-16T09:07:15.589Z,68.33
2019-03-16T09:09:44.011Z,67.46
2019-03-16T09:12:12.454Z,68.33
2019-03-16T09:14:45.264Z,68.20
2019-03-16T09:17:13.729Z,67.68
2019-03-16T09:19:42.194Z,67.32
2019-03-16T09:22:10.686Z,67.14
2019-03-16T09:24:39.131Z,66.76
2019-03-16T09:27:07.543Z,67.49
2019-03-16T09:29:35.984Z,67.09
2019-03-16T09:32:04.408Z,67.27
2019-03-16T09:34:32.878Z,67.03
2019-03-16T09:37:01.306Z,66.24
2019-03-16T09:39:29.785Z,66.75
2019-03-16T09:41:58.250Z,66.18
2019-03-16T09:44:26.656Z,65.73
2019-03-16T09:46:55.096Z,65.80
2019-03-16T09:49:23.499Z,65.58
2019-03-16T09:51:51.938Z,65.33
2019-03-16T09:54:20.358Z,64.65
2019-03-16T09:57:00.687Z,64.62
2019-03-16T09:59:19.111Z,65.99
2019-03-16T10:01:47.580Z,65.00
2019-03-16T10:04:16.003Z,65.27
2019-03-16T10:06:44.426Z,65.94
2019-03-16T10:09:12.900Z,66.20
2019-03-16T10:11:41.351Z,66.37
2019-03-16T10:14:09.763Z,64.73
2019-03-16T10:16:38.192Z,66.26
2019-03-16T10:19:06.678Z,66.91
2019-03-16T10:21:35.094Z,68.98
2019-03-16T10:24:03.519Z,69.95
2019-03-16T10:26:31.970Z,68.69
2019-03-16T10:29:00.424Z,68.53
2019-03-16T10:31:28.942Z,68.94
2019-03-16T10:33:57.397Z,68.97
2019-03-16T10:36:25.934Z,69.50
2019-03-16T10:38:54.392Z,70.05
2019-03-16T10:41:22.805Z,70.37
2019-03-16T10:43:51.258Z,71.26
2019-03-16T10:46:19.678Z,73.12
2019-03-16T10:48:48.114Z,73.05
2019-03-16T10:51:16.542Z,71.28
2019-03-16T10:53:45.033Z,68.32
2019-03-16T10:56:13.480Z,65.90
2019-03-16T10:58:41.922Z,63.71
2019-03-16T11:01:10.443Z,61.43
2019-03-16T11:03:39.746Z,63.47
2019-03-16T11:06:08.352Z,65.24
2019-03-16T11:08:36.835Z,64.74
2019-03-16T11:11:05.271Z,62.50
2019-03-16T11:13:41.050Z,63.47
2019-03-16T11:16:14.078Z,62.76
2019-03-16T11:18:42.778Z,63.99
2019-03-16T11:21:11.224Z,64.26
2019-03-16T11:23:39.679Z,64.29
2019-03-16T11:26:08.139Z,65.14
2019-03-16T11:28:36.621Z,66.11
2019-03-16T11:31:05.167Z,66.76
2019-03-16T11:33:33.628Z,68.36
2019-03-16T11:36:02.068Z,65.51
2019-03-16T11:38:30.488Z,47.94
2019-03-16T11:40:59.028Z,49.50
2019-03-16T11:43:27.430Z,50.12
2019-03-16T11:45:55.896Z,54.95
2019-03-16T11:48:24.311Z,57.88
2019-03-16T11:50:52.754Z,55.31
2019-03-16T11:53:21.342Z,47.53
2019-03-16T11:55:49.795Z,47.09
2019-03-16T11:58:18.282Z,35.52
2019-03-16T12:00:46.719Z,46.33
2019-03-16T12:03:15.143Z,54.03
2019-03-16T12:05:43.594Z,55.16
2019-03-16T12:08:12.018Z,57.47
2019-03-16T12:10:40.474Z,60.02
2019-03-16T12:13:17.236Z,60.76
2019-03-16T12:15:39.129Z,60.25
2019-03-16T12:18:07.626Z,60.41
2019-03-16T12:20:36.063Z,59.31
2019-03-16T12:23:04.528Z,59.63
2019-03-16T12:25:32.939Z,56.25
2019-03-16T12:28:01.441Z,57.41
2019-03-16T12:30:29.801Z,59.29
2019-03-16T12:32:58.262Z,58.54
2019-03-16T12:35:26.664Z,59.38
2019-03-16T12:37:55.140Z,59.40
2019-03-16T12:40:23.616Z,60.19
2019-03-16T12:42:52.113Z,54.05
2019-03-16T12:45:21.226Z,51.33
2019-03-16T12:47:49.637Z,56.15
2019-03-16T12:50:18.068Z,56.22
2019-03-16T12:52:46.478Z,57.92
2019-03-16T12:55:14.915Z,59.58
2019-03-16T12:57:43.363Z,53.75
2019-03-16T13:00:16.204Z,47.87
2019-03-16T13:02:44.712Z,46.60
2019-03-16T13:05:13.273Z,51.76
2019-03-16T13:07:41.732Z,48.68
2019-03-16T13:10:12.475Z,54.83
2019-03-16T13:12:40.896Z,57.07
2019-03-16T13:15:09.746Z,58.21
2019-03-16T13:17:38.189Z,58.42
2019-03-16T13:20:12.313Z,58.53
2019-03-16T13:22:40.791Z,57.42
2019-03-16T13:25:12.305Z,54.20
2019-03-16T13:27:40.883Z,52.49
2019-03-16T13:30:18.240Z,51.25
2019-03-16T13:32:46.681Z,49.62
2019-03-16T13:35:15.379Z,51.30
2019-03-16T13:37:44.069Z,48.92
2019-03-16T13:40:14.698Z,49.72
2019-03-16T13:42:43.272Z,49.21
2019-03-16T13:45:11.782Z,50.62
2019-03-16T13:47:40.194Z,51.77
2019-03-16T13:50:16.917Z,52.84
2019-03-16T13:52:45.565Z,54.42
2019-03-16T13:55:14.157Z,54.97
2019-03-16T13:57:42.715Z,55.20
2019-03-16T14:00:16.529Z,55.52
2019-03-16T14:02:45.043Z,55.64
2019-03-16T14:05:13.723Z,55.58
2019-03-16T14:07:42.307Z,55.80
2019-03-16T14:10:19.575Z,56.00
2019-03-16T14:12:47.984Z,55.47
2019-03-16T14:15:16.513Z,55.97
2019-03-16T14:17:45.108Z,54.74
2019-03-16T14:20:15.549Z,56.02
2019-03-16T14:22:43.973Z,55.46
2019-03-16T14:25:12.537Z,54.41
2019-03-16T14:27:40.977Z,54.49
2019-03-16T14:30:25.645Z,54.62
2019-03-16T14:32:45.411Z,54.51
2019-03-16T14:35:14.071Z,53.34
2019-03-16T14:37:42.837Z,53.35
2019-03-16T14:40:13.070Z,54.26
2019-03-16T14:42:41.729Z,52.79
2019-03-16T14:45:16.844Z,52.70
2019-03-16T14:47:45.299Z,53.00
2019-03-16T14:50:25.066Z,50.70
2019-03-16T14:52:53.476Z,51.31
2019-03-16T14:55:21.950Z,51.06
2019-03-16T14:57:50.580Z,50.34
2019-03-16T15:00:19.239Z,50.15
2019-03-16T15:02:47.679Z,50.52
2019-03-16T15:05:16.238Z,50.04
2019-03-16T15:07:44.668Z,49.61
2019-03-16T15:10:16.984Z,49.64
2019-03-16T15:12:45.506Z,49.14
2019-03-16T15:15:18.353Z,49.38
2019-03-16T15:17:46.771Z,49.52
2019-03-16T15:20:15.278Z,49.99
2019-03-16T15:22:43.695Z,50.49
2019-03-16T15:25:12.935Z,51.34
2019-03-16T15:27:41.425Z,51.46
2019-03-16T15:30:22.572Z,51.91
2019-03-16T15:32:51.023Z,52.68
2019-03-16T15:35:19.688Z,52.93
2019-03-16T15:37:48.113Z,53.61
2019-03-16T15:40:16.866Z,53.93
2019-03-16T15:42:45.307Z,54.21
2019-03-16T15:45:19.783Z,53.37
2019-03-16T15:47:48.187Z,53.84
2019-03-16T15:50:16.853Z,53.92
2019-03-16T15:52:45.302Z,54.06
2019-03-16T15:55:13.840Z,53.86
2019-03-16T15:57:43.008Z,54.84
2019-03-16T16:00:17.735Z,54.52
2019-03-16T16:02:46.321Z,54.49
2019-03-16T16:05:14.917Z,55.19
2019-03-16T16:07:43.330Z,54.49
2019-03-16T16:10:14.888Z,55.88
2019-03-16T16:12:43.316Z,55.78
2019-03-16T16:15:12.355Z,55.10
2019-03-16T16:17:40.866Z,55.15
2019-03-16T16:20:14.439Z,55.21
2019-03-16T16:22:43.067Z,55.92
2019-03-16T16:25:12.486Z,55.88
2019-03-16T16:27:40.914Z,56.40
2019-03-16T16:30:22.038Z,56.30
2019-03-16T16:32:50.529Z,55.65
2019-03-16T16:35:18.930Z,55.34
2019-03-16T16:37:47.341Z,55.91
2019-03-16T16:40:19.719Z,55.76
2019-03-16T16:42:48.241Z,55.75
2019-03-16T16:45:17.600Z,55.70
2019-03-16T16:47:46.018Z,55.93
2019-03-16T16:50:22.043Z,56.03
2019-03-16T16:52:50.639Z,56.13
2019-03-16T16:55:19.110Z,56.47
2019-03-16T16:57:47.572Z,56.92
2019-03-16T17:00:27.085Z,56.24
2019-03-16T17:02:55.486Z,56.33
2019-03-16T17:05:24.045Z,57.31
2019-03-16T17:07:52.519Z,56.39
2019-03-16T17:10:20.933Z,56.49
2019-03-16T17:12:49.374Z,55.87
2019-03-16T17:15:19.993Z,55.75
2019-03-16T17:17:48.443Z,56.69
2019-03-16T17:20:17.308Z,56.93
2019-03-16T17:22:46.039Z,56.80
2019-03-16T17:25:15.739Z,56.27
2019-03-16T17:27:44.377Z,56.12
2019-03-16T17:30:24.731Z,56.92
2019-03-16T17:32:53.360Z,57.27
2019-03-16T17:35:21.815Z,57.65
2019-03-16T17:37:50.311Z,57.53
2019-03-16T17:40:18.776Z,57.70
2019-03-16T17:42:47.178Z,57.27
2019-03-16T17:45:16.082Z,57.61
2019-03-16T17:47:44.494Z,57.60
2019-03-16T17:50:13.995Z,57.45
2019-03-16T17:52:42.419Z,57.07
2019-03-16T17:55:17.920Z,57.85
2019-03-16T17:57:46.385Z,57.95
2019-03-16T18:00:19.115Z,58.32
2019-03-16T18:02:51.925Z,58.39
2019-03-16T18:05:17.865Z,58.49
2019-03-16T18:07:46.271Z,58.00
2019-03-16T18:10:15.550Z,58.38
2019-03-16T18:12:44.051Z,58.39
2019-03-16T18:15:13.963Z,58.27
2019-03-16T18:17:42.423Z,58.36
2019-03-16T18:20:18.152Z,58.72
2019-03-16T18:22:47.515Z,58.66
2019-03-16T18:25:16.342Z,58.76
2019-03-16T18:27:44.884Z,58.83
2019-03-16T18:30:24.080Z,58.52
2019-03-16T18:32:52.504Z,58.90
2019-03-16T18:35:20.939Z,58.91
2019-03-16T18:37:49.417Z,59.04
2019-03-16T18:40:17.965Z,59.24
2019-03-16T18:42:46.461Z,59.47
2019-03-16T18:45:23.223Z,59.40
2019-03-16T18:47:51.725Z,59.55
2019-03-16T18:50:20.202Z,59.73
2019-03-16T18:52:48.602Z,59.81
2019-03-16T18:55:17.063Z,59.56
2019-03-16T18:57:45.512Z,59.92
2019-03-16T19:00:16.133Z,60.06
2019-03-16T19:02:44.543Z,59.95
2019-03-16T19:05:12.981Z,60.32
2019-03-16T19:07:41.417Z,59.84
2019-03-16T19:10:14.491Z,59.71
2019-03-16T19:12:43.414Z,59.84
2019-03-16T19:15:19.265Z,59.75
2019-03-16T19:17:57.950Z,59.94
2019-03-16T19:20:18.410Z,60.14
2019-03-16T19:22:46.928Z,60.42
2019-03-16T19:25:17.677Z,60.55
2019-03-16T19:27:46.040Z,60.69
2019-03-16T19:30:17.703Z,61.25
2019-03-16T19:32:46.151Z,61.10
2019-03-16T19:35:14.629Z,61.26
2019-03-16T19:37:43.093Z,62.02
2019-03-16T19:40:16.844Z,62.27
2019-03-16T19:42:46.873Z,62.23
2019-03-16T19:45:15.598Z,62.18
2019-03-16T19:47:44.038Z,62.53
2019-03-16T19:50:16.439Z,62.66
2019-03-16T19:52:45.056Z,63.06
2019-03-16T19:55:15.018Z,63.28
2019-03-16T19:57:43.805Z,63.46
2019-03-16T20:00:16.643Z,63.52
2019-03-16T20:02:51.025Z,63.57
2019-03-16T20:05:15.785Z,63.98
2019-03-16T20:07:44.510Z,63.75
2019-03-16T20:10:17.332Z,64.25
2019-03-16T20:12:45.878Z,64.18
2019-03-16T20:15:15.631Z,64.47
2019-03-16T20:17:44.382Z,64.28
2019-03-16T20:20:15.050Z,64.73
2019-03-16T20:22:43.532Z,64.67
2019-03-16T20:25:12.247Z,64.86
2019-03-16T20:27:40.794Z,65.29
2019-03-16T20:30:15.832Z,65.08
2019-03-16T20:32:44.314Z,65.23
2019-03-16T20:35:13.259Z,65.60
2019-03-16T20:37:41.799Z,65.33
2019-03-16T20:40:14.710Z,65.35
2019-03-16T20:42:43.393Z,65.37
2019-03-16T20:45:12.196Z,65.43
2019-03-16T20:47:40.839Z,65.69
2019-03-16T20:50:20.300Z,65.97
2019-03-16T20:52:48.752Z,65.68
2019-03-16T20:55:17.421Z,65.89
2019-03-16T20:57:45.874Z,65.90
2019-03-16T21:00:18.284Z,65.96
2019-03-16T21:02:47.160Z,66.03
2019-03-16T21:05:15.822Z,65.65
2019-03-16T21:07:44.439Z,66.19
2019-03-16T21:10:13.697Z,65.41
2019-03-16T21:12:42.162Z,65.69
2019-03-16T21:15:12.120Z,65.81
2019-03-16T21:17:40.676Z,65.97
2019-03-16T21:20:11.711Z,65.96
2019-03-16T21:22:40.108Z,65.77
2019-03-16T21:25:10.637Z,66.04
2019-03-16T21:27:39.118Z,66.04
2019-03-16T21:30:10.573Z,65.64
2019-03-16T21:32:38.976Z,65.83
2019-03-16T21:35:08.251Z,65.71
2019-03-16T21:37:36.686Z,65.69
2019-03-16T21:40:07.631Z,65.58
2019-03-16T21:42:36.077Z,65.90
2019-03-16T21:45:06.537Z,66.06
2019-03-16T21:47:34.958Z,66.53
2019-03-16T21:50:04.020Z,66.24
2019-03-16T21:52:32.502Z,66.19
2019-03-16T21:55:00.907Z,66.41
2019-03-16T21:57:29.462Z,66.47
2019-03-16T21:59:58.177Z,66.30
2019-03-16T22:02:26.650Z,66.30
2019-03-16T22:04:55.201Z,66.86
2019-03-16T22:07:23.620Z,66.32
2019-03-16T22:09:52.064Z,66.01
2019-03-16T22:12:20.811Z,66.23
2019-03-16T22:14:49.245Z,65.62
2019-03-16T22:17:19.184Z,65.94
2019-03-16T22:19:47.902Z,65.46
2019-03-16T22:22:16.407Z,65.07
2019-03-16T22:24:44.806Z,64.62
2019-03-16T22:27:13.258Z,65.17
2019-03-16T22:29:41.662Z,64.96
2019-03-16T22:32:10.076Z,64.93
2019-03-16T22:34:38.522Z,64.80
2019-03-16T22:37:06.973Z,64.96
2019-03-16T22:39:35.373Z,64.65
2019-03-16T22:42:03.793Z,64.50
2019-03-16T22:44:32.276Z,64.10
2019-03-16T22:47:00.688Z,63.78
2019-03-16T22:49:29.269Z,63.61
2019-03-16T22:51:57.675Z,63.22
2019-03-16T22:54:26.080Z,62.51
2019-03-16T22:56:54.516Z,61.70
2019-03-16T22:59:22.957Z,61.35
2019-03-16T23:01:51.443Z,61.54
2019-03-16T23:04:19.967Z,61.40
2019-03-16T23:06:48.575Z,61.14
2019-03-16T23:09:17.046Z,60.54
2019-03-16T23:11:45.466Z,60.68
2019-03-16T23:14:13.906Z,60.65
2019-03-16T23:16:42.296Z,60.83
2019-03-16T23:19:10.825Z,60.12
2019-03-16T23:21:39.248Z,59.96
2019-03-16T23:24:07.728Z,60.06
2019-03-16T23:26:38.671Z,60.10
2019-03-16T23:29:06.272Z,60.30
2019-03-16T23:31:34.769Z,60.45
2019-03-16T23:34:03.207Z,60.56
2019-03-16T23:36:31.642Z,60.75
2019-03-16T23:39:02.257Z,61.08
2019-03-16T23:41:30.188Z,60.72
2019-03-16T23:43:58.689Z,60.82
2019-03-16T23:46:27.133Z,60.75
2019-03-16T23:48:55.743Z,60.88
2019-03-16T23:51:24.174Z,60.87
2019-03-16T23:53:52.699Z,60.56
2019-03-16T23:56:21.103Z,60.53
2019-03-16T23:58:49.493Z,60.08
